Redwood Falls, Minnesota
Current Conditions -  °F | °C
As of 11:53 AM on Friday 28 Nov 2014 (Local Time) from KRWF Reporting Station
Broken Clouds Broken Clouds  
Wind Chill:   Ceiling: 9500
Heat Index: 19°   Visibility: 10mi
Dew Point: 13°   Wind: 13mph
Humidity: 77%   Direction: 130°SE
Pressure: 29.84"   Gusts: NA
Location:  44.54°N, 95.12°W
Report Text: KRWF 281753Z AUTO 13011KT 10SM BKN095 M07/M11 A2984 RMK AO2 SLP127 60000 T10721106 11072 21122 58017
Loading
Personal Weather Stations






























Interactive Weather Map New forecast layout! Learn more

10-Day Weather Forecast

Advertisements
Track Severe Weather on mobile